sensor_id;sensor_type;location;lat;lon;timestamp;pressure;altitude;pressure_sealevel;temperature;humidity
59110;BME280;44895;47.438;18.978;2023-04-19T00:00:28;100041.91;;;12.67;96.94
59110;BME280;44895;47.438;18.978;2023-04-19T00:03:31;100042.81;;;12.63;99.43
59110;BME280;44895;47.438;18.978;2023-04-19T00:06:35;100035.47;;;12.63;100.00
59110;BME280;44895;47.438;18.978;2023-04-19T00:09:39;100039.94;;;12.59;97.71
59110;BME280;44895;47.438;18.978;2023-04-19T00:12:43;100040.09;;;12.63;100.00
59110;BME280;44895;47.438;18.978;2023-04-19T00:15:46;100027.91;;;12.60;100.00
59110;BME280;44895;47.438;18.978;2023-04-19T00:18:50;100040.41;;;12.61;100.00
59110;BME280;44895;47.438;18.978;2023-04-19T00:21:54;100019.38;;;12.53;100.00
59110;BME280;44895;47.438;18.978;2023-04-19T00:24:58;100031.25;;;12.57;100.00
59110;BME280;44895;47.438;18.978;2023-04-19T00:28:02;100023.41;;;12.55;100.00
59110;BME280;44895;47.438;18.978;2023-04-19T00:31:06;100026.59;;;12.57;100.00
59110;BME280;44895;47.438;18.978;2023-04-19T00:34:10;100019.78;;;12.46;100.00
59110;BME280;44895;47.438;18.978;2023-04-19T00:37:14;100007.59;;;12.44;100.00
59110;BME280;44895;47.438;18.978;2023-04-19T00:40:18;100009.94;;;12.36;100.00
59110;BME280;44895;47.438;18.978;2023-04-19T00:43:22;100014.22;;;12.29;100.00
59110;BME280;44895;47.438;18.978;2023-04-19T00:46:26;100013.19;;;12.24;100.00
59110;BME280;44895;47.438;18.978;2023-04-19T00:49:30;100013.22;;;12.11;100.00
59110;BME280;44895;47.438;18.978;2023-04-19T00:52:34;100005.28;;;12.00;100.00
59110;BME280;44895;47.438;18.978;2023-04-19T00:55:38;100003.84;;;11.89;100.00
59110;BME280;44895;47.438;18.978;2023-04-19T00:58:41;100005.16;;;11.78;100.00
59110;BME280;44895;47.438;18.978;2023-04-19T01:01:46;100003.53;;;11.77;100.00
59110;BME280;44895;47.438;18.978;2023-04-19T01:04:50;99997.84;;;11.64;100.00
59110;BME280;44895;47.438;18.978;2023-04-19T01:07:55;100002.13;;;11.65;100.00
59110;BME280;44895;47.438;18.978;2023-04-19T01:10:59;99988.53;;;11.65;100.00
59110;BME280;44895;47.438;18.978;2023-04-19T01:14:02;99986.13;;;11.50;100.00
59110;BME280;44895;47.438;18.978;2023-04-19T01:17:07;99984.03;;;11.33;100.00
59110;BME280;44895;47.438;18.978;2023-04-19T01:20:11;99981.00;;;11.34;100.00
59110;BME280;44895;47.438;18.978;2023-04-19T01:23:16;99984.81;;;11.33;100.00
59110;BME280;44895;47.438;18.978;2023-04-19T01:26:21;99986.00;;;11.13;100.00
59110;BME280;44895;47.438;18.978;2023-04-19T01:29:25;99980.88;;;10.79;100.00
59110;BME280;44895;47.438;18.978;2023-04-19T01:32:28;99972.09;;;11.01;100.00
59110;BME280;44895;47.438;18.978;2023-04-19T01:35:33;99975.81;;;11.05;100.00
59110;BME280;44895;47.438;18.978;2023-04-19T01:38:36;99975.53;;;11.06;100.00
59110;BME280;44895;47.438;18.978;2023-04-19T01:41:40;99973.69;;;11.02;100.00
59110;BME280;44895;47.438;18.978;2023-04-19T01:44:46;99967.34;;;10.92;100.00
59110;BME280;44895;47.438;18.978;2023-04-19T01:47:50;99970.38;;;11.05;100.00
59110;BME280;44895;47.438;18.978;2023-04-19T01:50:54;99966.72;;;10.96;100.00
59110;BME280;44895;47.438;18.978;2023-04-19T01:53:57;99958.97;;;10.89;100.00
59110;BME280;44895;47.438;18.978;2023-04-19T01:57:01;99955.31;;;10.66;100.00
59110;BME280;44895;47.438;18.978;2023-04-19T02:00:06;99961.44;;;10.71;100.00
59110;BME280;44895;47.438;18.978;2023-04-19T02:03:17;99967.66;;;10.58;100.00
59110;BME280;44895;47.438;18.978;2023-04-19T02:06:24;99957.22;;;10.46;100.00
59110;BME280;44895;47.438;18.978;2023-04-19T02:09:29;99956.06;;;10.52;100.00
59110;BME280;44895;47.438;18.978;2023-04-19T02:12:33;99960.00;;;10.60;100.00
59110;BME280;44895;47.438;18.978;2023-04-19T02:15:37;99958.31;;;10.64;100.00
59110;BME280;44895;47.438;18.978;2023-04-19T02:18:40;99952.53;;;10.33;100.00
59110;BME280;44895;47.438;18.978;2023-04-19T02:21:44;99951.44;;;10.34;100.00
59110;BME280;44895;47.438;18.978;2023-04-19T02:24:51;99952.72;;;10.41;100.00
59110;BME280;44895;47.438;18.978;2023-04-19T02:27:54;99959.22;;;10.40;100.00
59110;BME280;44895;47.438;18.978;2023-04-19T02:31:03;99949.00;;;10.13;100.00
59110;BME280;44895;47.438;18.978;2023-04-19T02:34:07;99941.97;;;10.31;100.00
59110;BME280;44895;47.438;18.978;2023-04-19T02:37:10;99937.94;;;10.48;100.00
59110;BME280;44895;47.438;18.978;2023-04-19T02:40:14;99935.72;;;10.50;100.00
59110;BME280;44895;47.438;18.978;2023-04-19T02:43:18;99929.03;;;10.61;100.00
59110;BME280;44895;47.438;18.978;2023-04-19T02:46:22;99935.59;;;10.74;100.00
59110;BME280;44895;47.438;18.978;2023-04-19T02:49:25;99923.31;;;10.76;100.00
59110;BME280;44895;47.438;18.978;2023-04-19T02:52:29;99926.13;;;10.71;100.00
59110;BME280;44895;47.438;18.978;2023-04-19T02:55:33;99916.09;;;10.72;100.00
59110;BME280;44895;47.438;18.978;2023-04-19T02:58:43;99910.78;;;10.81;100.00
59110;BME280;44895;47.438;18.978;2023-04-19T03:01:48;99912.28;;;10.73;100.00
59110;BME280;44895;47.438;18.978;2023-04-19T03:04:52;99910.44;;;10.68;100.00
59110;BME280;44895;47.438;18.978;2023-04-19T03:07:56;99909.94;;;10.66;100.00
59110;BME280;44895;47.438;18.978;2023-04-19T03:11:00;99902.56;;;10.53;100.00
59110;BME280;44895;47.438;18.978;2023-04-19T03:14:06;99902.56;;;10.53;100.00
59110;BME280;44895;47.438;18.978;2023-04-19T03:17:10;99900.03;;;10.42;100.00
59110;BME280;44895;47.438;18.978;2023-04-19T03:20:14;99890.34;;;10.36;100.00
59110;BME280;44895;47.438;18.978;2023-04-19T03:23:19;99892.06;;;10.46;100.00
59110;BME280;44895;47.438;18.978;2023-04-19T03:26:23;99896.63;;;10.32;100.00
59110;BME280;44895;47.438;18.978;2023-04-19T03:29:29;99899.81;;;10.39;100.00
59110;BME280;44895;47.438;18.978;2023-04-19T03:32:37;99887.75;;;10.26;100.00
59110;BME280;44895;47.438;18.978;2023-04-19T03:35:43;99883.72;;;10.23;100.00
59110;BME280;44895;47.438;18.978;2023-04-19T03:38:48;99891.94;;;10.18;100.00
59110;BME280;44895;47.438;18.978;2023-04-19T03:41:54;99888.06;;;10.05;100.00
59110;BME280;44895;47.438;18.978;2023-04-19T03:45:02;99897.59;;;10.03;100.00
59110;BME280;44895;47.438;18.978;2023-04-19T03:48:09;99884.84;;;9.65;100.00
59110;BME280;44895;47.438;18.978;2023-04-19T03:51:13;99901.34;;;9.69;100.00
59110;BME280;44895;47.438;18.978;2023-04-19T03:54:18;99891.81;;;9.71;100.00
59110;BME280;44895;47.438;18.978;2023-04-19T03:57:22;99892.09;;;9.51;100.00
59110;BME280;44895;47.438;18.978;2023-04-19T04:00:27;99900.53;;;9.68;100.00
59110;BME280;44895;47.438;18.978;2023-04-19T04:03:35;99895.50;;;9.61;100.00
59110;BME280;44895;47.438;18.978;2023-04-19T04:06:40;99902.72;;;9.66;100.00
59110;BME280;44895;47.438;18.978;2023-04-19T04:09:44;99897.84;;;9.68;100.00
59110;BME280;44895;47.438;18.978;2023-04-19T04:12:50;99886.75;;;9.65;100.00
59110;BME280;44895;47.438;18.978;2023-04-19T04:16:00;99894.00;;;9.50;100.00
59110;BME280;44895;47.438;18.978;2023-04-19T04:19:04;99897.59;;;9.45;100.00
59110;BME280;44895;47.438;18.978;2023-04-19T04:22:11;99885.81;;;9.55;100.00
59110;BME280;44895;47.438;18.978;2023-04-19T04:25:18;99894.28;;;9.49;100.00
59110;BME280;44895;47.438;18.978;2023-04-19T04:28:24;99897.53;;;9.70;100.00
59110;BME280;44895;47.438;18.978;2023-04-19T04:31:28;99884.03;;;9.65;100.00
59110;BME280;44895;47.438;18.978;2023-04-19T04:34:33;99885.75;;;9.79;100.00
59110;BME280;44895;47.438;18.978;2023-04-19T04:37:43;99880.31;;;9.79;100.00
59110;BME280;44895;47.438;18.978;2023-04-19T04:40:51;99879.56;;;9.93;100.00
59110;BME280;44895;47.438;18.978;2023-04-19T04:43:57;99874.28;;;10.02;100.00
59110;BME280;44895;47.438;18.978;2023-04-19T04:47:00;99880.53;;;10.02;100.00
59110;BME280;44895;47.438;18.978;2023-04-19T04:50:07;99880.44;;;10.26;100.00
59110;BME280;44895;47.438;18.978;2023-04-19T04:53:11;99880.50;;;10.40;100.00
59110;BME280;44895;47.438;18.978;2023-04-19T04:56:17;99870.91;;;10.76;100.00
59110;BME280;44895;47.438;18.978;2023-04-19T04:59:22;99868.44;;;10.93;100.00
59110;BME280;44895;47.438;18.978;2023-04-19T05:02:26;99867.22;;;11.14;100.00
59110;BME280;44895;47.438;18.978;2023-04-19T05:05:30;99869.09;;;11.41;100.00
59110;BME280;44895;47.438;18.978;2023-04-19T05:08:34;99865.22;;;11.70;100.00
59110;BME280;44895;47.438;18.978;2023-04-19T05:11:53;99860.16;;;12.14;100.00
59110;BME280;44895;47.438;18.978;2023-04-19T05:14:57;99864.06;;;12.44;100.00
59110;BME280;44895;47.438;18.978;2023-04-19T05:18:01;99863.53;;;12.65;100.00
59110;BME280;44895;47.438;18.978;2023-04-19T05:21:05;99868.59;;;12.57;100.00
59110;BME280;44895;47.438;18.978;2023-04-19T05:24:11;99866.16;;;12.79;100.00
59110;BME280;44895;47.438;18.978;2023-04-19T05:27:15;99858.13;;;13.14;100.00
59110;BME280;44895;47.438;18.978;2023-04-19T05:30:19;99859.00;;;13.41;100.00
59110;BME280;44895;47.438;18.978;2023-04-19T05:33:23;99862.09;;;13.74;100.00
59110;BME280;44895;47.438;18.978;2023-04-19T05:36:29;99858.75;;;13.77;100.00
59110;BME280;44895;47.438;18.978;2023-04-19T05:39:35;99868.03;;;14.20;100.00
59110;BME280;44895;47.438;18.978;2023-04-19T05:42:38;99859.50;;;14.39;96.24
59110;BME280;44895;47.438;18.978;2023-04-19T05:45:42;99861.06;;;14.49;92.79
59110;BME280;44895;47.438;18.978;2023-04-19T05:48:46;99860.44;;;14.43;89.16
59110;BME280;44895;47.438;18.978;2023-04-19T05:52:19;99856.06;;;14.68;87.93
59110;BME280;44895;47.438;18.978;2023-04-19T05:55:26;99851.97;;;15.22;87.45
59110;BME280;44895;47.438;18.978;2023-04-19T05:58:30;99854.53;;;15.48;80.66
59110;BME280;44895;47.438;18.978;2023-04-19T06:01:34;99842.19;;;16.06;76.08
59110;BME280;44895;47.438;18.978;2023-04-19T06:04:38;99845.03;;;16.30;71.48
59110;BME280;44895;47.438;18.978;2023-04-19T06:07:43;99852.75;;;16.16;72.89
59110;BME280;44895;47.438;18.978;2023-04-19T06:10:47;99846.22;;;16.08;76.79
59110;BME280;44895;47.438;18.978;2023-04-19T06:13:51;99847.72;;;16.64;79.87
59110;BME280;44895;47.438;18.978;2023-04-19T06:16:55;99841.34;;;19.24;66.10
59110;BME280;44895;47.438;18.978;2023-04-19T06:19:59;99833.47;;;20.60;60.17
59110;BME280;44895;47.438;18.978;2023-04-19T06:23:04;99829.63;;;21.68;55.38
59110;BME280;44895;47.438;18.978;2023-04-19T06:26:08;99837.88;;;21.11;53.01
59110;BME280;44895;47.438;18.978;2023-04-19T06:29:12;99828.59;;;20.73;53.61
59110;BME280;44895;47.438;18.978;2023-04-19T06:32:16;99835.03;;;20.14;55.87
59110;BME280;44895;47.438;18.978;2023-04-19T06:35:19;99829.34;;;21.50;54.46
59110;BME280;44895;47.438;18.978;2023-04-19T06:38:23;99832.59;;;21.86;52.54
59110;BME280;44895;47.438;18.978;2023-04-19T06:41:27;99822.84;;;22.34;51.09
59110;BME280;44895;47.438;18.978;2023-04-19T06:44:31;99820.78;;;22.23;50.34
59110;BME280;44895;47.438;18.978;2023-04-19T06:47:34;99817.91;;;21.78;50.18
59110;BME280;44895;47.438;18.978;2023-04-19T06:50:38;99824.00;;;20.80;50.32
59110;BME280;44895;47.438;18.978;2023-04-19T06:53:42;99810.25;;;20.84;46.01
59110;BME280;44895;47.438;18.978;2023-04-19T06:56:48;99815.50;;;21.77;45.19
59110;BME280;44895;47.438;18.978;2023-04-19T06:59:55;99812.41;;;21.51;42.63
59110;BME280;44895;47.438;18.978;2023-04-19T07:02:59;99813.38;;;21.36;41.21
59110;BME280;44895;47.438;18.978;2023-04-19T07:06:03;99802.50;;;20.93;41.54
59110;BME280;44895;47.438;18.978;2023-04-19T07:09:08;99800.66;;;21.58;43.19
59110;BME280;44895;47.438;18.978;2023-04-19T07:12:11;99804.50;;;23.04;40.56
59110;BME280;44895;47.438;18.978;2023-04-19T07:15:15;99805.38;;;23.16;40.32
59110;BME280;44895;47.438;18.978;2023-04-19T07:18:19;99801.28;;;23.69;42.41
59110;BME280;44895;47.438;18.978;2023-04-19T07:21:23;99797.91;;;24.33;41.00
59110;BME280;44895;47.438;18.978;2023-04-19T07:24:30;99795.16;;;24.80;40.19
59110;BME280;44895;47.438;18.978;2023-04-19T07:27:34;99797.56;;;24.56;40.60
59110;BME280;44895;47.438;18.978;2023-04-19T07:30:38;99798.72;;;24.30;41.74
59110;BME280;44895;47.438;18.978;2023-04-19T07:33:42;99797.94;;;24.80;42.92
59110;BME280;44895;47.438;18.978;2023-04-19T07:36:46;99797.16;;;24.40;43.03
59110;BME280;44895;47.438;18.978;2023-04-19T07:39:50;99799.81;;;23.93;43.10
59110;BME280;44895;47.438;18.978;2023-04-19T07:42:54;99788.91;;;25.94;41.48
59110;BME280;44895;47.438;18.978;2023-04-19T07:45:58;99796.41;;;26.08;40.88
59110;BME280;44895;47.438;18.978;2023-04-19T07:49:02;99792.81;;;24.86;42.27
59110;BME280;44895;47.438;18.978;2023-04-19T07:52:06;99791.81;;;26.43;39.83
59110;BME280;44895;47.438;18.978;2023-04-19T07:55:10;99787.19;;;28.67;36.19
59110;BME280;44895;47.438;18.978;2023-04-19T07:58:13;99791.63;;;27.79;36.50
59110;BME280;44895;47.438;18.978;2023-04-19T08:01:17;99789.94;;;25.33;39.36
59110;BME280;44895;47.438;18.978;2023-04-19T08:04:21;99799.22;;;22.40;44.25
59110;BME280;44895;47.438;18.978;2023-04-19T08:07:25;99795.78;;;21.78;44.82
59110;BME280;44895;47.438;18.978;2023-04-19T08:10:29;99792.03;;;21.63;44.32
59110;BME280;44895;47.438;18.978;2023-04-19T08:13:33;99791.66;;;22.78;42.77
59110;BME280;44895;47.438;18.978;2023-04-19T08:16:37;99802.66;;;21.31;45.19
59110;BME280;44895;47.438;18.978;2023-04-19T08:19:41;99791.78;;;20.88;46.20
59110;BME280;44895;47.438;18.978;2023-04-19T08:22:45;99793.16;;;20.75;46.86
59110;BME280;44895;47.438;18.978;2023-04-19T08:25:49;99798.25;;;20.73;46.62
59110;BME280;44895;47.438;18.978;2023-04-19T08:28:53;99802.50;;;20.47;47.26
59110;BME280;44895;47.438;18.978;2023-04-19T08:31:57;99794.63;;;20.02;47.17
59110;BME280;44895;47.438;18.978;2023-04-19T08:35:01;99793.16;;;20.09;46.28
59110;BME280;44895;47.438;18.978;2023-04-19T08:38:04;99802.81;;;19.79;47.41
59110;BME280;44895;47.438;18.978;2023-04-19T08:41:10;99801.03;;;20.07;46.90
59110;BME280;44895;47.438;18.978;2023-04-19T08:44:15;99794.59;;;20.68;46.66
59110;BME280;44895;47.438;18.978;2023-04-19T08:47:20;99786.97;;;21.08;44.97
59110;BME280;44895;47.438;18.978;2023-04-19T08:50:24;99785.44;;;21.41;44.43
59110;BME280;44895;47.438;18.978;2023-04-19T08:53:28;99786.38;;;21.53;44.12
59110;BME280;44895;47.438;18.978;2023-04-19T08:56:32;99781.91;;;21.14;45.60
59110;BME280;44895;47.438;18.978;2023-04-19T08:59:36;99783.56;;;20.45;46.41
59110;BME280;44895;47.438;18.978;2023-04-19T09:02:48;99775.09;;;20.11;47.86
59110;BME280;44895;47.438;18.978;2023-04-19T09:05:53;99774.75;;;20.36;49.17
59110;BME280;44895;47.438;18.978;2023-04-19T09:09:13;99781.81;;;20.33;50.09
59110;BME280;44895;47.438;18.978;2023-04-19T09:12:18;99780.91;;;20.06;52.04
59110;BME280;44895;47.438;18.978;2023-04-19T09:15:34;99771.81;;;20.25;53.25
59110;BME280;44895;47.438;18.978;2023-04-19T09:18:56;99787.66;;;19.50;53.79
59110;BME280;44895;47.438;18.978;2023-04-19T09:22:14;99773.84;;;19.85;53.73
59110;BME280;44895;47.438;18.978;2023-04-19T09:25:24;99776.31;;;19.91;55.00
59110;BME280;44895;47.438;18.978;2023-04-19T09:28:29;99771.16;;;19.14;58.52
59110;BME280;44895;47.438;18.978;2023-04-19T09:31:35;99767.66;;;19.53;57.06
59110;BME280;44895;47.438;18.978;2023-04-19T09:34:50;99767.88;;;20.03;55.65
59110;BME280;44895;47.438;18.978;2023-04-19T09:37:58;99759.69;;;19.87;56.88
59110;BME280;44895;47.438;18.978;2023-04-19T09:41:07;99759.59;;;20.03;55.77
59110;BME280;44895;47.438;18.978;2023-04-19T09:44:12;99757.78;;;19.52;55.32
59110;BME280;44895;47.438;18.978;2023-04-19T09:47:25;99755.34;;;19.86;53.19
59110;BME280;44895;47.438;18.978;2023-04-19T09:50:29;99748.31;;;19.69;54.05
59110;BME280;44895;47.438;18.978;2023-04-19T09:53:33;99762.06;;;19.49;53.17
59110;BME280;44895;47.438;18.978;2023-04-19T09:56:37;99753.81;;;19.69;53.54
59110;BME280;44895;47.438;18.978;2023-04-19T09:59:41;99743.75;;;19.57;58.30
59110;BME280;44895;47.438;18.978;2023-04-19T10:02:45;99752.00;;;19.37;61.29
59110;BME280;44895;47.438;18.978;2023-04-19T10:05:57;99750.06;;;19.58;58.94
59110;BME280;44895;47.438;18.978;2023-04-19T10:09:02;99745.75;;;19.80;58.37
59110;BME280;44895;47.438;18.978;2023-04-19T10:12:06;99751.84;;;19.69;58.62
59110;BME280;44895;47.438;18.978;2023-04-19T10:15:11;99741.22;;;19.87;63.14
59110;BME280;44895;47.438;18.978;2023-04-19T10:18:16;99740.47;;;19.91;62.34
59110;BME280;44895;47.438;18.978;2023-04-19T10:21:21;99738.59;;;19.75;59.86
59110;BME280;44895;47.438;18.978;2023-04-19T10:24:25;99732.25;;;19.75;62.13
59110;BME280;44895;47.438;18.978;2023-04-19T10:27:28;99732.66;;;19.93;62.85
59110;BME280;44895;47.438;18.978;2023-04-19T10:30:32;99732.41;;;19.82;64.15
59110;BME280;44895;47.438;18.978;2023-04-19T10:33:36;99738.09;;;20.12;65.93
59110;BME280;44895;47.438;18.978;2023-04-19T10:36:40;99738.41;;;20.07;67.54
59110;BME280;44895;47.438;18.978;2023-04-19T10:39:44;99738.72;;;20.25;64.30
59110;BME280;44895;47.438;18.978;2023-04-19T10:49:23;99725.03;;;20.56;60.78
59110;BME280;44895;47.438;18.978;2023-04-19T10:52:27;99723.84;;;20.80;57.25
59110;BME280;44895;47.438;18.978;2023-04-19T10:55:32;99719.69;;;19.74;56.86
59110;BME280;44895;47.438;18.978;2023-04-19T10:59:12;99730.31;;;19.75;57.41
59110;BME280;44895;47.438;18.978;2023-04-19T11:05:27;99724.09;;;19.19;59.75
59110;BME280;44895;47.438;18.978;2023-04-19T11:08:31;99719.81;;;18.86;59.73
59110;BME280;44895;47.438;18.978;2023-04-19T11:11:35;99718.97;;;18.66;61.46
59110;BME280;44895;47.438;18.978;2023-04-19T11:14:52;99716.72;;;18.72;61.40
59110;BME280;44895;47.438;18.978;2023-04-19T11:17:57;99712.72;;;18.69;62.01
59110;BME280;44895;47.438;18.978;2023-04-19T11:21:02;99720.84;;;18.30;63.36
59110;BME280;44895;47.438;18.978;2023-04-19T11:24:07;99724.81;;;18.01;66.78
59110;BME280;44895;47.438;18.978;2023-04-19T11:27:11;99715.34;;;18.14;68.16
59110;BME280;44895;47.438;18.978;2023-04-19T11:30:17;99715.34;;;18.30;66.22
59110;BME280;44895;47.438;18.978;2023-04-19T11:33:22;99717.94;;;18.23;67.04
59110;BME280;44895;47.438;18.978;2023-04-19T11:36:28;99708.88;;;18.06;68.80
59110;BME280;44895;47.438;18.978;2023-04-19T11:39:31;99716.31;;;18.22;72.30
59110;BME280;44895;47.438;18.978;2023-04-19T11:42:35;99726.31;;;17.98;76.79
59110;BME280;44895;47.438;18.978;2023-04-19T11:45:39;99726.66;;;17.68;77.86
59110;BME280;44895;47.438;18.978;2023-04-19T11:48:50;99715.63;;;17.81;75.43
59110;BME280;44895;47.438;18.978;2023-04-19T11:51:56;99726.41;;;18.02;72.90
59110;BME280;44895;47.438;18.978;2023-04-19T11:55:17;99720.69;;;17.79;72.98
59110;BME280;44895;47.438;18.978;2023-04-19T11:58:24;99720.94;;;17.73;77.81
59110;BME280;44895;47.438;18.978;2023-04-19T12:01:28;99712.59;;;17.70;77.01
59110;BME280;44895;47.438;18.978;2023-04-19T12:04:32;99716.97;;;17.87;77.27
59110;BME280;44895;47.438;18.978;2023-04-19T12:07:36;99723.47;;;17.95;81.18
59110;BME280;44895;47.438;18.978;2023-04-19T12:10:54;99715.44;;;18.02;88.21
59110;BME280;44895;47.438;18.978;2023-04-19T12:14:14;99722.53;;;18.35;93.22
59110;BME280;44895;47.438;18.978;2023-04-19T12:17:18;99714.38;;;18.22;88.34
59110;BME280;44895;47.438;18.978;2023-04-19T12:20:35;99708.06;;;18.38;91.33
59110;BME280;44895;47.438;18.978;2023-04-19T12:23:39;99708.97;;;18.42;93.14
59110;BME280;44895;47.438;18.978;2023-04-19T12:26:53;99698.16;;;18.33;86.30
59110;BME280;44895;47.438;18.978;2023-04-19T12:29:58;99700.44;;;18.47;87.10
59110;BME280;44895;47.438;18.978;2023-04-19T12:33:02;99694.84;;;18.60;90.51
59110;BME280;44895;47.438;18.978;2023-04-19T12:36:05;99707.28;;;18.53;86.22
59110;BME280;44895;47.438;18.978;2023-04-19T12:39:09;99699.03;;;18.37;86.09
59110;BME280;44895;47.438;18.978;2023-04-19T12:42:12;99696.09;;;18.62;86.18
59110;BME280;44895;47.438;18.978;2023-04-19T12:45:17;99700.59;;;18.54;84.85
59110;BME280;44895;47.438;18.978;2023-04-19T12:48:21;99700.53;;;18.19;80.34
59110;BME280;44895;47.438;18.978;2023-04-19T12:51:25;99690.88;;;18.25;78.15
59110;BME280;44895;47.438;18.978;2023-04-19T12:54:30;99700.91;;;18.01;77.94
59110;BME280;44895;47.438;18.978;2023-04-19T12:57:34;99704.03;;;17.87;79.45
59110;BME280;44895;47.438;18.978;2023-04-19T13:00:37;99700.47;;;17.87;79.21
59110;BME280;44895;47.438;18.978;2023-04-19T13:03:41;99698.34;;;17.80;81.20
59110;BME280;44895;47.438;18.978;2023-04-19T13:06:45;99686.81;;;18.03;81.12
59110;BME280;44895;47.438;18.978;2023-04-19T13:09:49;99669.97;;;18.20;75.27
59110;BME280;44895;47.438;18.978;2023-04-19T13:12:53;99679.78;;;18.37;76.59
59110;BME280;44895;47.438;18.978;2023-04-19T13:15:56;99668.88;;;18.41;72.24
59110;BME280;44895;47.438;18.978;2023-04-19T13:19:00;99675.94;;;18.58;70.49
59110;BME280;44895;47.438;18.978;2023-04-19T13:22:04;99681.03;;;18.56;70.81
59110;BME280;44895;47.438;18.978;2023-04-19T13:25:08;99676.53;;;18.32;77.00
59110;BME280;44895;47.438;18.978;2023-04-19T13:28:12;99684.56;;;18.40;86.72
59110;BME280;44895;47.438;18.978;2023-04-19T13:31:16;99678.19;;;18.36;88.60
59110;BME280;44895;47.438;18.978;2023-04-19T13:34:20;99685.09;;;18.30;86.82
59110;BME280;44895;47.438;18.978;2023-04-19T13:37:24;99687.69;;;18.23;91.14
59110;BME280;44895;47.438;18.978;2023-04-19T13:40:27;99679.28;;;18.32;89.16
59110;BME280;44895;47.438;18.978;2023-04-19T13:43:31;99684.78;;;18.32;92.83
59110;BME280;44895;47.438;18.978;2023-04-19T13:46:35;99682.38;;;18.14;90.52
59110;BME280;44895;47.438;18.978;2023-04-19T13:49:39;99674.81;;;18.11;87.87
59110;BME280;44895;47.438;18.978;2023-04-19T13:52:43;99680.72;;;17.81;92.91
59110;BME280;44895;47.438;18.978;2023-04-19T13:55:46;99682.25;;;17.95;91.38
59110;BME280;44895;47.438;18.978;2023-04-19T13:58:50;99677.00;;;17.89;91.05
59110;BME280;44895;47.438;18.978;2023-04-19T14:01:54;99683.22;;;17.58;93.54
59110;BME280;44895;47.438;18.978;2023-04-19T14:04:58;99679.28;;;17.71;92.68
59110;BME280;44895;47.438;18.978;2023-04-19T14:08:02;99682.97;;;17.47;94.49
59110;BME280;44895;47.438;18.978;2023-04-19T14:11:06;99678.88;;;17.85;93.66
59110;BME280;44895;47.438;18.978;2023-04-19T14:14:10;99687.44;;;17.68;93.05
59110;BME280;44895;47.438;18.978;2023-04-19T14:17:14;99681.00;;;17.48;92.37
59110;BME280;44895;47.438;18.978;2023-04-19T14:20:18;99679.75;;;17.17;95.25
59110;BME280;44895;47.438;18.978;2023-04-19T14:23:21;99681.25;;;17.42;94.66
59110;BME280;44895;47.438;18.978;2023-04-19T14:26:25;99687.09;;;17.41;93.61
59110;BME280;44895;47.438;18.978;2023-04-19T14:29:29;99689.09;;;17.56;92.45
59110;BME280;44895;47.438;18.978;2023-04-19T14:32:33;99683.00;;;17.35;92.26
59110;BME280;44895;47.438;18.978;2023-04-19T14:35:37;99681.19;;;17.26;91.98
59110;BME280;44895;47.438;18.978;2023-04-19T14:38:41;99686.41;;;17.03;93.97
59110;BME280;44895;47.438;18.978;2023-04-19T14:41:45;99684.19;;;17.21;89.30
59110;BME280;44895;47.438;18.978;2023-04-19T14:44:50;99686.44;;;17.32;86.75
59110;BME280;44895;47.438;18.978;2023-04-19T14:47:53;99686.19;;;17.37;88.33
59110;BME280;44895;47.438;18.978;2023-04-19T14:50:57;99684.19;;;17.21;90.32
59110;BME280;44895;47.438;18.978;2023-04-19T14:54:01;99683.78;;;17.07;89.20
59110;BME280;44895;47.438;18.978;2023-04-19T14:57:05;99685.88;;;16.98;93.22
59110;BME280;44895;47.438;18.978;2023-04-19T15:00:09;99684.81;;;17.02;90.55
59110;BME280;44895;47.438;18.978;2023-04-19T15:03:13;99691.44;;;16.89;91.94
59110;BME280;44895;47.438;18.978;2023-04-19T15:06:17;99689.41;;;16.98;92.10
59110;BME280;44895;47.438;18.978;2023-04-19T15:09:21;99702.66;;;16.84;92.11
59110;BME280;44895;47.438;18.978;2023-04-19T15:12:25;99699.47;;;16.94;91.94
59110;BME280;44895;47.438;18.978;2023-04-19T15:15:29;99700.81;;;16.88;92.08
59110;BME280;44895;47.438;18.978;2023-04-19T15:18:32;99708.69;;;16.89;96.27
59110;BME280;44895;47.438;18.978;2023-04-19T15:21:36;99702.75;;;17.00;97.83
59110;BME280;44895;47.438;18.978;2023-04-19T15:24:40;99707.56;;;17.03;99.52
59110;BME280;44895;47.438;18.978;2023-04-19T15:27:44;99707.78;;;16.85;99.95
59110;BME280;44895;47.438;18.978;2023-04-19T15:30:59;99710.66;;;16.89;97.95
59110;BME280;44895;47.438;18.978;2023-04-19T15:34:03;99704.81;;;16.78;93.97
59110;BME280;44895;47.438;18.978;2023-04-19T15:37:07;99710.19;;;16.74;95.20
59110;BME280;44895;47.438;18.978;2023-04-19T15:40:11;99717.16;;;16.72;89.70
59110;BME280;44895;47.438;18.978;2023-04-19T15:43:16;99709.06;;;16.75;88.21
59110;BME280;44895;47.438;18.978;2023-04-19T15:46:20;99712.94;;;16.74;88.99
59110;BME280;44895;47.438;18.978;2023-04-19T15:49:23;99717.84;;;16.81;85.70
59110;BME280;44895;47.438;18.978;2023-04-19T15:52:27;99719.03;;;16.92;85.90
59110;BME280;44895;47.438;18.978;2023-04-19T15:55:31;99718.75;;;16.73;83.52
59110;BME280;44895;47.438;18.978;2023-04-19T15:58:38;99721.06;;;16.58;82.98
59110;BME280;44895;47.438;18.978;2023-04-19T16:01:42;99722.44;;;16.52;82.40
59110;BME280;44895;47.438;18.978;2023-04-19T16:04:46;99715.13;;;16.32;83.83
59110;BME280;44895;47.438;18.978;2023-04-19T16:08:04;99718.38;;;16.12;84.35
59110;BME280;44895;47.438;18.978;2023-04-19T16:11:08;99727.31;;;16.22;83.87